createdAt,value
2022-08-26T00:02:20.938Z,19.33
2022-08-26T00:04:48.429Z,19.24
2022-08-26T00:07:17.192Z,19.27
2022-08-26T00:09:47.402Z,19.22
2022-08-26T00:12:16.657Z,19.18
2022-08-26T00:14:43.202Z,19.01
2022-08-26T00:17:10.215Z,19.11
2022-08-26T00:19:37.276Z,19.04
2022-08-26T00:22:06.577Z,18.96
2022-08-26T00:24:33.190Z,18.95
2022-08-26T00:27:02.245Z,18.97
2022-08-26T00:29:35.573Z,18.83
2022-08-26T00:32:04.355Z,18.80
2022-08-26T00:34:31.035Z,18.80
2022-08-26T00:36:57.577Z,18.85
2022-08-26T00:39:24.211Z,18.69
2022-08-26T00:41:50.777Z,18.72
2022-08-26T00:44:20.337Z,18.59
2022-08-26T00:46:51.395Z,18.30
2022-08-26T00:49:25.906Z,18.20
2022-08-26T00:51:57.293Z,18.45
2022-08-26T00:54:27.408Z,18.47
2022-08-26T00:57:16.722Z,18.51
2022-08-26T00:59:50.848Z,18.53
2022-08-26T01:02:21.469Z,18.41
2022-08-26T01:04:56.582Z,18.41
2022-08-26T01:07:30.328Z,18.44
2022-08-26T01:09:59.852Z,18.45
2022-08-26T01:12:35.521Z,18.39
2022-08-26T01:15:08.667Z,18.37
2022-08-26T01:17:38.487Z,18.38
2022-08-26T01:20:28.291Z,18.35
2022-08-26T01:23:01.655Z,18.26
2022-08-26T01:25:35.140Z,18.28
2022-08-26T01:28:05.986Z,18.27
2022-08-26T01:30:34.070Z,18.32
2022-08-26T01:33:09.115Z,18.27
2022-08-26T01:35:38.381Z,18.27
2022-08-26T01:38:07.340Z,18.23
2022-08-26T01:40:37.300Z,18.11
2022-08-26T01:43:10.241Z,18.17
2022-08-26T01:45:40.429Z,18.20
2022-08-26T01:48:11.658Z,18.13
2022-08-26T01:50:38.954Z,18.23
2022-08-26T01:53:12.026Z,18.19
2022-08-26T01:55:42.933Z,18.21
2022-08-26T01:58:18.223Z,18.21
2022-08-26T02:00:45.756Z,18.18
2022-08-26T02:03:19.214Z,18.06
2022-08-26T02:05:58.501Z,18.10
2022-08-26T02:08:36.948Z,18.09
2022-08-26T02:11:08.907Z,18.04
2022-08-26T02:13:42.050Z,18.08
2022-08-26T02:16:09.393Z,18.05
2022-08-26T02:18:38.939Z,18.07
2022-08-26T02:21:07.482Z,18.01
2022-08-26T02:23:37.790Z,17.90
2022-08-26T02:26:10.262Z,17.87
2022-08-26T02:28:46.871Z,17.71
2022-08-26T02:31:13.580Z,17.82
2022-08-26T02:33:43.027Z,17.84
2022-08-26T02:36:13.413Z,17.78
2022-08-26T02:38:40.180Z,17.71
2022-08-26T02:41:10.199Z,17.62
2022-08-26T02:43:36.965Z,17.66
2022-08-26T02:46:03.991Z,17.72
2022-08-26T02:48:31.151Z,17.71
2022-08-26T02:51:01.760Z,17.63
2022-08-26T02:53:32.132Z,17.65
2022-08-26T02:56:07.279Z,17.64
2022-08-26T02:58:38.713Z,17.53
2022-08-26T03:01:06.545Z,17.49
2022-08-26T03:03:35.666Z,17.48
2022-08-26T03:06:04.666Z,17.50
2022-08-26T03:08:31.263Z,17.46
2022-08-26T03:10:57.888Z,17.40
2022-08-26T03:13:24.726Z,17.41
2022-08-26T03:15:53.926Z,17.38
2022-08-26T03:18:20.973Z,17.36
2022-08-26T03:20:50.047Z,17.39
2022-08-26T03:23:16.620Z,17.32
2022-08-26T03:25:51.569Z,17.26
2022-08-26T03:28:19.522Z,17.25
2022-08-26T03:30:49.302Z,17.31
2022-08-26T03:33:16.628Z,17.32
2022-08-26T03:35:45.591Z,17.30
2022-08-26T03:38:12.204Z,17.34
2022-08-26T03:40:42.742Z,17.31
2022-08-26T03:43:11.912Z,17.24
2022-08-26T03:45:39.515Z,17.25
2022-08-26T03:48:10.309Z,17.24
2022-08-26T03:50:37.616Z,17.18
2022-08-26T03:53:04.914Z,17.23
2022-08-26T03:55:36.126Z,17.16
2022-08-26T03:58:04.147Z,17.14
2022-08-26T04:00:31.009Z,17.19
2022-08-26T04:02:57.694Z,17.10
2022-08-26T04:05:28.369Z,17.02
2022-08-26T04:07:55.036Z,16.99
2022-08-26T04:10:29.069Z,17.05
2022-08-26T04:12:59.381Z,17.04
2022-08-26T04:15:27.061Z,17.02
2022-08-26T04:17:54.396Z,16.91
2022-08-26T04:20:24.832Z,16.92
2022-08-26T04:22:51.983Z,16.94
2022-08-26T04:25:21.354Z,16.88
2022-08-26T04:27:48.542Z,16.84
2022-08-26T04:30:15.399Z,16.85
2022-08-26T04:32:44.177Z,16.82
2022-08-26T04:35:10.858Z,16.89
2022-08-26T04:37:44.011Z,16.82
2022-08-26T04:40:13.124Z,16.86
2022-08-26T04:42:40.169Z,16.85
2022-08-26T04:45:09.903Z,16.87
2022-08-26T04:47:37.237Z,16.85
2022-08-26T04:50:07.388Z,16.87
2022-08-26T04:52:35.602Z,16.87
2022-08-26T04:55:05.967Z,16.86
2022-08-26T04:57:33.717Z,16.88
2022-08-26T05:00:02.561Z,16.85
2022-08-26T05:02:31.909Z,16.97
2022-08-26T05:05:02.085Z,17.00
2022-08-26T05:07:28.890Z,17.02
2022-08-26T05:09:55.435Z,17.01
2022-08-26T05:12:24.536Z,17.01
2022-08-26T05:14:51.176Z,17.11
2022-08-26T05:17:18.433Z,17.19
2022-08-26T05:19:47.366Z,17.18
2022-08-26T05:22:17.333Z,17.26
2022-08-26T05:24:49.737Z,17.26
2022-08-26T05:27:21.276Z,17.29
2022-08-26T05:29:48.258Z,17.29
2022-08-26T05:32:23.238Z,17.41
2022-08-26T05:34:57.109Z,17.32
2022-08-26T05:37:25.205Z,17.46
2022-08-26T05:39:52.139Z,17.61
2022-08-26T05:42:20.457Z,17.53
2022-08-26T05:44:55.487Z,17.57
2022-08-26T05:47:22.806Z,17.59
2022-08-26T05:49:51.649Z,17.77
2022-08-26T05:52:19.103Z,18.18
2022-08-26T05:54:45.643Z,19.07
2022-08-26T05:57:14.267Z,19.48
2022-08-26T05:59:40.901Z,19.44
2022-08-26T06:02:08.563Z,19.10
2022-08-26T06:04:35.590Z,18.86
2022-08-26T06:07:03.139Z,18.86
2022-08-26T06:09:31.991Z,18.83
2022-08-26T06:12:02.194Z,18.88
2022-08-26T06:14:28.924Z,18.86
2022-08-26T06:16:58.040Z,18.67
2022-08-26T06:19:25.044Z,18.91
2022-08-26T06:22:23.550Z,18.70
2022-08-26T06:25:09.378Z,18.69
2022-08-26T06:27:41.351Z,18.75
2022-08-26T06:30:11.521Z,18.91
2022-08-26T06:32:39.049Z,19.19
2022-08-26T06:35:12.086Z,19.31
2022-08-26T06:37:43.801Z,19.36
2022-08-26T06:40:13.257Z,19.32
2022-08-26T06:42:43.009Z,19.50
2022-08-26T06:45:12.394Z,19.51
2022-08-26T06:47:38.982Z,19.68
2022-08-26T06:50:06.163Z,19.69
2022-08-26T06:52:34.947Z,19.83
2022-08-26T06:55:01.680Z,19.83
2022-08-26T06:57:28.688Z,19.98
2022-08-26T06:59:58.358Z,20.23
2022-08-26T07:02:25.096Z,20.27
2022-08-26T07:04:58.156Z,20.55
2022-08-26T07:07:30.159Z,20.82
2022-08-26T07:09:59.973Z,21.03
2022-08-26T07:12:29.228Z,21.29
2022-08-26T07:14:58.367Z,21.30
2022-08-26T07:17:25.373Z,21.17
2022-08-26T07:19:54.159Z,21.50
2022-08-26T07:22:22.987Z,21.78
2022-08-26T07:24:50.827Z,21.73
2022-08-26T07:27:18.008Z,21.70
2022-08-26T07:29:45.377Z,21.69
2022-08-26T07:32:17.074Z,21.89
2022-08-26T07:34:47.655Z,22.16
2022-08-26T07:37:16.809Z,22.20
2022-08-26T07:39:46.844Z,22.25
2022-08-26T07:42:16.676Z,22.22
2022-08-26T07:44:45.297Z,22.29
2022-08-26T07:47:24.828Z,22.03
2022-08-26T07:49:57.576Z,22.28
2022-08-26T07:52:29.056Z,22.38
2022-08-26T07:55:00.664Z,22.30
2022-08-26T07:57:30.833Z,22.29
2022-08-26T08:00:00.800Z,22.25
2022-08-26T08:02:29.099Z,22.63
2022-08-26T08:04:56.804Z,22.37
2022-08-26T08:07:45.018Z,22.41
2022-08-26T08:10:21.714Z,22.85
2022-08-26T08:12:52.875Z,23.06
2022-08-26T08:15:27.833Z,22.79
2022-08-26T08:18:00.190Z,23.16
2022-08-26T08:20:28.447Z,23.38
2022-08-26T08:22:59.643Z,23.43
2022-08-26T08:25:26.270Z,23.60
2022-08-26T08:27:53.208Z,23.90
2022-08-26T08:30:23.109Z,23.90
2022-08-26T08:32:52.494Z,24.08
2022-08-26T08:35:26.496Z,24.51
2022-08-26T08:37:57.974Z,24.60
2022-08-26T08:40:29.444Z,24.33
2022-08-26T08:42:59.000Z,24.73
2022-08-26T08:45:36.278Z,24.78
2022-08-26T08:48:29.654Z,25.30
2022-08-26T08:51:07.987Z,25.14
2022-08-26T08:53:45.184Z,25.60
2022-08-26T08:56:26.254Z,25.81
2022-08-26T08:59:20.350Z,25.71
2022-08-26T09:01:54.134Z,25.79
2022-08-26T09:04:48.170Z,25.83
2022-08-26T09:07:42.457Z,25.23
2022-08-26T09:10:41.313Z,25.56
2022-08-26T09:13:16.900Z,25.22
2022-08-26T09:16:02.126Z,25.60
2022-08-26T09:18:54.197Z,25.91
2022-08-26T09:21:25.294Z,25.82
2022-08-26T09:23:57.008Z,26.15
2022-08-26T09:26:41.305Z,26.22
2022-08-26T09:29:23.336Z,26.63
2022-08-26T09:31:51.518Z,26.43
2022-08-26T09:34:27.434Z,26.41
2022-08-26T09:36:58.985Z,26.94
2022-08-26T09:39:28.369Z,26.57
2022-08-26T09:42:20.646Z,26.95
2022-08-26T09:45:08.597Z,26.83
2022-08-26T09:47:39.062Z,26.33
2022-08-26T09:50:19.873Z,26.28
2022-08-26T09:52:47.111Z,26.54
2022-08-26T09:55:21.376Z,26.69
2022-08-26T09:57:51.336Z,26.17
2022-08-26T10:00:23.871Z,26.65
2022-08-26T10:02:57.869Z,26.48
2022-08-26T10:05:43.799Z,26.68
2022-08-26T10:08:18.592Z,26.98
2022-08-26T10:10:48.861Z,27.26
2022-08-26T10:13:23.646Z,27.37
2022-08-26T10:16:20.452Z,27.62
2022-08-26T10:19:00.296Z,27.58
2022-08-26T10:21:35.591Z,27.79
2022-08-26T10:24:07.233Z,27.71
2022-08-26T10:27:01.293Z,27.87
2022-08-26T10:29:45.940Z,27.87
2022-08-26T10:32:40.784Z,28.02
2022-08-26T10:35:11.659Z,27.96
2022-08-26T10:37:46.707Z,27.95
2022-08-26T10:40:35.477Z,27.86
2022-08-26T10:43:21.199Z,27.77
2022-08-26T10:45:53.290Z,27.80
2022-08-26T10:48:44.612Z,27.85
2022-08-26T10:51:15.017Z,27.84
2022-08-26T10:53:51.375Z,27.87
2022-08-26T10:56:46.627Z,27.77
2022-08-26T10:59:16.055Z,27.60
2022-08-26T11:01:54.843Z,27.54
2022-08-26T11:04:48.188Z,27.63
2022-08-26T11:07:31.741Z,27.75
2022-08-26T11:10:30.986Z,27.87
2022-08-26T11:13:00.215Z,27.89
2022-08-26T11:15:28.160Z,27.93
2022-08-26T11:18:02.892Z,28.16
2022-08-26T11:20:36.563Z,28.21
2022-08-26T11:23:12.466Z,28.26
2022-08-26T11:26:12.551Z,28.27
2022-08-26T11:28:53.424Z,28.25
2022-08-26T11:31:26.922Z,28.23
2022-08-26T11:34:02.658Z,28.36
2022-08-26T11:36:49.934Z,28.63
2022-08-26T11:39:49.358Z,29.03
2022-08-26T11:42:38.160Z,29.06
2022-08-26T11:45:17.430Z,29.19
2022-08-26T11:47:44.758Z,29.20
2022-08-26T11:50:14.350Z,29.16
2022-08-26T11:52:50.496Z,29.12
2022-08-26T11:55:17.883Z,29.19
2022-08-26T11:57:53.196Z,29.28
2022-08-26T12:00:35.370Z,29.33
2022-08-26T12:03:07.479Z,29.51
2022-08-26T12:05:45.946Z,29.57
2022-08-26T12:08:18.152Z,29.46
2022-08-26T12:10:45.465Z,29.50
2022-08-26T12:13:26.310Z,29.42
2022-08-26T12:16:00.121Z,29.25
2022-08-26T12:18:34.039Z,29.38
2022-08-26T12:21:14.536Z,29.29
2022-08-26T12:23:46.805Z,29.27
2022-08-26T12:26:25.486Z,29.26
2022-08-26T12:28:54.425Z,29.35
2022-08-26T12:31:24.608Z,29.45
2022-08-26T12:33:54.831Z,29.37
2022-08-26T12:36:39.367Z,29.54
2022-08-26T12:39:10.966Z,29.56
2022-08-26T12:41:55.978Z,29.52
2022-08-26T12:44:53.158Z,29.34
2022-08-26T12:47:43.203Z,29.47
2022-08-26T12:50:12.863Z,29.64
2022-08-26T12:53:01.465Z,29.62
2022-08-26T12:55:35.545Z,29.58
2022-08-26T12:58:31.641Z,29.68
2022-08-26T13:01:22.681Z,29.41
2022-08-26T13:03:52.415Z,29.39
2022-08-26T13:06:28.188Z,29.50
2022-08-26T13:09:25.382Z,29.44
2022-08-26T13:11:54.596Z,29.22
2022-08-26T13:14:24.932Z,29.42
2022-08-26T13:17:00.024Z,29.43
2022-08-26T13:19:29.984Z,29.48
2022-08-26T13:21:58.788Z,29.17
2022-08-26T13:24:42.030Z,29.00
2022-08-26T13:27:13.594Z,29.02
2022-08-26T13:29:42.769Z,29.18
2022-08-26T13:32:09.758Z,29.30
2022-08-26T13:34:37.476Z,29.32
2022-08-26T13:37:07.380Z,29.11
2022-08-26T13:39:36.792Z,29.17
2022-08-26T13:42:03.576Z,29.43
2022-08-26T13:44:30.242Z,29.43
2022-08-26T13:46:59.882Z,29.33
2022-08-26T13:49:26.493Z,29.41
2022-08-26T13:51:55.380Z,29.30
2022-08-26T13:54:22.137Z,29.10
2022-08-26T13:56:48.760Z,29.07
2022-08-26T13:59:15.407Z,29.06
2022-08-26T14:01:44.801Z,28.90
2022-08-26T14:04:14.088Z,29.17
2022-08-26T14:06:40.739Z,28.97
2022-08-26T14:09:07.384Z,29.08
2022-08-26T14:11:53.946Z,28.92
2022-08-26T14:14:25.053Z,28.64
2022-08-26T14:16:58.849Z,28.76
2022-08-26T14:19:26.841Z,28.49
2022-08-26T14:21:53.534Z,27.95
2022-08-26T14:24:20.122Z,27.48
2022-08-26T14:26:48.582Z,27.10
2022-08-26T14:29:16.797Z,26.89
2022-08-26T14:31:44.187Z,26.71
2022-08-26T14:34:14.803Z,26.53
2022-08-26T14:36:41.694Z,26.30
2022-08-26T14:39:10.649Z,26.15
2022-08-26T14:41:54.042Z,26.08
2022-08-26T14:44:25.765Z,25.96
2022-08-26T14:46:55.708Z,25.92
2022-08-26T14:49:24.425Z,25.83
2022-08-26T14:51:51.116Z,25.84
2022-08-26T14:54:18.589Z,25.81
2022-08-26T14:56:47.231Z,25.81
2022-08-26T14:59:18.953Z,25.75
2022-08-26T15:01:45.813Z,25.75
2022-08-26T15:04:15.502Z,25.61
2022-08-26T15:06:44.676Z,25.55
2022-08-26T15:09:14.438Z,25.59
2022-08-26T15:11:43.542Z,25.51
2022-08-26T15:14:18.940Z,25.53
2022-08-26T15:16:48.932Z,25.50
2022-08-26T15:19:16.446Z,25.36
2022-08-26T15:21:47.131Z,25.31
2022-08-26T15:24:16.083Z,25.31
2022-08-26T15:26:45.789Z,25.32
2022-08-26T15:29:12.983Z,25.29
2022-08-26T15:31:43.069Z,25.22
2022-08-26T15:34:16.831Z,25.12
2022-08-26T15:36:46.481Z,25.17
2022-08-26T15:39:17.257Z,25.11
2022-08-26T15:41:46.479Z,24.94
2022-08-26T15:44:14.310Z,24.97
2022-08-26T15:46:42.161Z,24.96
2022-08-26T15:49:18.193Z,24.94
2022-08-26T15:51:48.037Z,24.86
2022-08-26T15:54:23.031Z,24.90
2022-08-26T15:56:53.098Z,24.70
2022-08-26T15:59:22.770Z,24.63
2022-08-26T16:01:49.534Z,24.56
2022-08-26T16:04:21.003Z,24.50
2022-08-26T16:06:52.291Z,24.53
2022-08-26T16:09:24.216Z,24.31
2022-08-26T16:11:51.249Z,24.36
2022-08-26T16:14:18.042Z,24.33
2022-08-26T16:16:44.742Z,24.21
2022-08-26T16:19:11.721Z,24.19
2022-08-26T16:21:40.397Z,24.12
2022-08-26T16:24:07.928Z,24.12
2022-08-26T16:26:36.846Z,24.09
2022-08-26T16:29:08.709Z,24.06
2022-08-26T16:31:40.329Z,24.03
2022-08-26T16:34:08.021Z,24.03
2022-08-26T16:36:36.718Z,23.98
2022-08-26T16:39:08.274Z,23.98
2022-08-26T16:41:35.435Z,23.93
2022-08-26T16:44:02.452Z,23.89
2022-08-26T16:46:29.938Z,23.92
2022-08-26T16:48:58.452Z,23.91
2022-08-26T16:51:27.792Z,23.93
2022-08-26T16:53:56.535Z,23.94
2022-08-26T16:56:33.382Z,23.76
2022-08-26T16:59:02.088Z,23.81
2022-08-26T17:01:28.757Z,23.81
2022-08-26T17:03:55.469Z,23.72
2022-08-26T17:06:24.521Z,23.76
2022-08-26T17:08:51.444Z,23.70
2022-08-26T17:11:18.694Z,23.69
2022-08-26T17:13:47.762Z,23.66
2022-08-26T17:16:15.206Z,23.65
2022-08-26T17:18:41.948Z,23.59
2022-08-26T17:21:12.880Z,23.48
2022-08-26T17:23:41.256Z,23.50
2022-08-26T17:26:08.409Z,23.48
2022-08-26T17:28:35.557Z,23.47
2022-08-26T17:31:04.849Z,23.45
2022-08-26T17:33:34.428Z,23.48
2022-08-26T17:36:03.475Z,23.40
2022-08-26T17:38:32.709Z,23.42
2022-08-26T17:40:59.320Z,23.45
2022-08-26T17:43:26.895Z,23.43
2022-08-26T17:46:04.614Z,23.33
2022-08-26T17:48:35.059Z,23.37
2022-08-26T17:51:06.801Z,23.34
2022-08-26T17:53:34.101Z,23.25
2022-08-26T17:56:00.850Z,23.30
2022-08-26T17:58:31.052Z,23.29
2022-08-26T18:01:01.273Z,23.25
2022-08-26T18:03:30.150Z,23.26
2022-08-26T18:06:01.776Z,23.25
2022-08-26T18:08:33.857Z,23.31
2022-08-26T18:11:05.783Z,23.29
2022-08-26T18:13:33.137Z,23.25
2022-08-26T18:16:05.602Z,23.25
2022-08-26T18:18:35.887Z,23.22
2022-08-26T18:21:05.661Z,23.09
2022-08-26T18:23:32.254Z,22.95
2022-08-26T18:25:58.868Z,22.90
2022-08-26T18:28:28.503Z,22.94
2022-08-26T18:30:57.846Z,22.85
2022-08-26T18:33:24.452Z,22.93
2022-08-26T18:35:53.328Z,22.90
2022-08-26T18:38:22.440Z,22.99
2022-08-26T18:40:52.010Z,22.89
2022-08-26T18:43:18.959Z,22.65
2022-08-26T18:45:45.532Z,22.47
2022-08-26T18:48:15.777Z,21.82
2022-08-26T18:50:46.989Z,21.43
2022-08-26T18:53:13.913Z,21.50
2022-08-26T18:55:40.966Z,21.45
2022-08-26T18:58:08.043Z,21.28
2022-08-26T19:00:34.592Z,21.22
2022-08-26T19:03:01.231Z,20.82
2022-08-26T19:05:30.116Z,21.06
2022-08-26T19:07:56.687Z,20.95
2022-08-26T19:10:24.586Z,20.63
2022-08-26T19:12:51.811Z,20.63
2022-08-26T19:15:23.507Z,20.51
2022-08-26T19:17:50.345Z,20.36
2022-08-26T19:20:17.029Z,20.39
2022-08-26T19:22:48.307Z,20.28
2022-08-26T19:25:15.395Z,19.97
2022-08-26T19:27:46.480Z,20.10
2022-08-26T19:30:15.861Z,20.13
2022-08-26T19:32:44.718Z,19.97
2022-08-26T19:35:13.510Z,19.95
2022-08-26T19:37:40.083Z,19.91
2022-08-26T19:40:07.768Z,19.95
2022-08-26T19:42:34.423Z,19.92
2022-08-26T19:45:24.325Z,19.92
2022-08-26T19:47:52.980Z,19.95
2022-08-26T19:50:22.090Z,19.91
2022-08-26T19:52:48.921Z,19.90
2022-08-26T19:55:20.473Z,19.92
2022-08-26T19:57:47.177Z,19.56
2022-08-26T20:00:20.340Z,19.52
2022-08-26T20:02:47.442Z,19.04
2022-08-26T20:05:15.817Z,18.98
2022-08-26T20:07:42.503Z,19.32
2022-08-26T20:10:14.289Z,19.39
2022-08-26T20:12:41.786Z,19.35
2022-08-26T20:15:10.196Z,19.31
2022-08-26T20:17:39.544Z,19.03
2022-08-26T20:20:33.285Z,18.86
2022-08-26T20:23:04.453Z,18.96
2022-08-26T20:25:34.095Z,18.94
2022-08-26T20:28:01.258Z,18.91
2022-08-26T20:30:28.420Z,18.90
2022-08-26T20:32:57.787Z,19.03
2022-08-26T20:35:27.504Z,19.03
2022-08-26T20:37:54.098Z,19.17
2022-08-26T20:40:22.166Z,19.20
2022-08-26T20:42:48.860Z,19.20
2022-08-26T20:45:18.438Z,19.23
2022-08-26T20:47:48.487Z,19.21
2022-08-26T20:50:15.272Z,19.32
2022-08-26T20:52:41.841Z,19.09
2022-08-26T20:55:08.975Z,19.08
2022-08-26T20:57:37.810Z,19.09
2022-08-26T21:00:05.968Z,19.11
2022-08-26T21:02:33.101Z,19.12
2022-08-26T21:05:03.174Z,19.04
2022-08-26T21:07:30.673Z,18.81
2022-08-26T21:09:57.295Z,18.70
2022-08-26T21:12:24.383Z,18.97
2022-08-26T21:14:50.937Z,19.06
2022-08-26T21:17:19.941Z,18.93
2022-08-26T21:19:49.269Z,19.03
2022-08-26T21:22:15.866Z,19.02
2022-08-26T21:24:44.808Z,19.04
2022-08-26T21:27:11.488Z,18.77
2022-08-26T21:29:38.105Z,18.41
2022-08-26T21:32:07.988Z,18.48
2022-08-26T21:34:36.661Z,18.63
2022-08-26T21:37:05.963Z,18.62
2022-08-26T21:39:43.098Z,18.41
2022-08-26T21:42:09.699Z,18.28
2022-08-26T21:44:36.359Z,18.42
2022-08-26T21:47:04.903Z,18.44
2022-08-26T21:49:31.600Z,18.40
2022-08-26T21:51:58.285Z,18.36
2022-08-26T21:54:24.903Z,18.58
2022-08-26T21:56:53.349Z,18.67
2022-08-26T21:59:19.925Z,18.66
2022-08-26T22:01:47.118Z,18.68
2022-08-26T22:04:16.256Z,18.77
2022-08-26T22:06:50.689Z,18.86
2022-08-26T22:09:21.712Z,18.89
2022-08-26T22:11:49.047Z,18.96
2022-08-26T22:14:23.952Z,18.94
2022-08-26T22:16:54.598Z,18.90
2022-08-26T22:19:24.204Z,18.87
2022-08-26T22:21:57.867Z,18.78
2022-08-26T22:24:27.103Z,18.57
2022-08-26T22:26:56.015Z,18.73
2022-08-26T22:29:25.705Z,18.70
2022-08-26T22:31:54.731Z,18.68
2022-08-26T22:34:23.718Z,18.43
2022-08-26T22:36:50.761Z,18.52
2022-08-26T22:39:20.299Z,18.53
2022-08-26T22:41:48.418Z,18.68
2022-08-26T22:44:18.363Z,18.67
2022-08-26T22:46:49.235Z,18.61
2022-08-26T22:49:16.608Z,18.54
2022-08-26T22:51:46.993Z,18.61
2022-08-26T22:54:14.896Z,18.51
2022-08-26T22:56:42.737Z,18.60
2022-08-26T22:59:09.500Z,18.60
2022-08-26T23:01:41.258Z,18.67
2022-08-26T23:04:09.867Z,18.68
2022-08-26T23:06:41.274Z,18.68
2022-08-26T23:09:11.655Z,18.64
2022-08-26T23:11:42.182Z,18.61
2022-08-26T23:14:09.055Z,18.66
2022-08-26T23:16:39.361Z,18.37
2022-08-26T23:19:06.903Z,18.24
2022-08-26T23:21:35.871Z,18.19
2022-08-26T23:24:06.206Z,18.13
2022-08-26T23:26:33.784Z,18.06
2022-08-26T23:29:01.467Z,18.13
2022-08-26T23:31:28.233Z,18.17
2022-08-26T23:34:16.101Z,18.25
2022-08-26T23:36:46.420Z,18.17
2022-08-26T23:39:16.545Z,18.35
2022-08-26T23:41:45.641Z,18.43
2022-08-26T23:44:12.832Z,18.50
2022-08-26T23:46:39.939Z,18.50
2022-08-26T23:49:12.875Z,18.52
2022-08-26T23:52:00.587Z,18.27
2022-08-26T23:54:29.813Z,18.38
2022-08-26T23:56:58.822Z,18.19
2022-08-26T23:59:25.871Z,18.29
